createdAt,value
2022-07-29T00:01:19.583Z,5.45
2022-07-29T00:04:04.969Z,7.03
2022-07-29T00:06:49.819Z,6.70
2022-07-29T00:09:43.004Z,6.60
2022-07-29T00:12:36.759Z,6.85
2022-07-29T00:15:21.983Z,6.68
2022-07-29T00:18:07.052Z,7.10
2022-07-29T00:20:52.140Z,7.88
2022-07-29T00:23:37.216Z,7.80
2022-07-29T00:26:22.500Z,7.90
2022-07-29T00:29:33.101Z,8.43
2022-07-29T00:32:12.953Z,7.55
2022-07-29T00:35:16.185Z,8.18
2022-07-29T00:38:01.137Z,8.30
2022-07-29T00:40:47.900Z,8.68
2022-07-29T00:43:32.625Z,8.52
2022-07-29T00:46:17.690Z,8.32
2022-07-29T00:49:02.792Z,7.78
2022-07-29T00:51:49.021Z,7.80
2022-07-29T00:54:34.732Z,7.63
2022-07-29T00:57:20.476Z,7.93
2022-07-29T01:00:07.691Z,7.25
2022-07-29T01:02:53.306Z,7.22
2022-07-29T01:05:48.117Z,8.18
2022-07-29T01:08:37.125Z,7.70
2022-07-29T01:11:22.048Z,7.70
2022-07-29T01:14:07.777Z,7.28
2022-07-29T01:17:02.388Z,6.20
2022-07-29T01:20:08.764Z,7.80
2022-07-29T01:23:32.529Z,7.03
2022-07-29T01:26:23.528Z,7.05
2022-07-29T01:29:18.391Z,6.60
2022-07-29T01:32:20.286Z,7.05
2022-07-29T01:35:19.507Z,7.63
2022-07-29T01:38:16.945Z,7.00
2022-07-29T01:41:16.965Z,6.90
2022-07-29T01:44:15.971Z,7.05
2022-07-29T01:47:16.231Z,6.90
2022-07-29T01:50:06.384Z,6.53
2022-07-29T01:52:57.413Z,6.50
2022-07-29T01:55:46.377Z,6.43
2022-07-29T01:58:33.639Z,6.88
2022-07-29T02:01:20.223Z,7.03
2022-07-29T02:04:10.202Z,6.85
2022-07-29T02:07:00.978Z,6.90
2022-07-29T02:09:48.055Z,7.28
2022-07-29T02:12:34.283Z,6.88
2022-07-29T02:15:19.542Z,7.38
2022-07-29T02:18:31.204Z,6.90
2022-07-29T02:21:21.884Z,6.93
2022-07-29T02:24:11.476Z,6.53
2022-07-29T02:26:58.565Z,7.45
2022-07-29T02:29:45.955Z,7.75
2022-07-29T02:32:32.882Z,7.85
2022-07-29T02:35:18.959Z,7.43
2022-07-29T02:38:23.320Z,7.50
2022-07-29T02:41:15.814Z,6.97
2022-07-29T02:44:12.100Z,7.68
2022-07-29T02:47:10.949Z,7.38
2022-07-29T02:50:28.330Z,7.00
2022-07-29T02:53:20.536Z,7.68
2022-07-29T02:56:11.147Z,7.95
2022-07-29T03:01:44.604Z,8.02
2022-07-29T03:04:32.666Z,7.95
2022-07-29T03:07:20.394Z,8.20
2022-07-29T03:10:13.436Z,7.63
2022-07-29T03:12:59.526Z,8.20
2022-07-29T03:15:45.796Z,8.02
2022-07-29T03:18:31.639Z,8.02
2022-07-29T03:21:16.893Z,8.40
2022-07-29T03:24:04.512Z,8.00
2022-07-29T03:26:53.354Z,7.82
2022-07-29T03:29:38.059Z,7.50
2022-07-29T03:32:25.264Z,7.32
2022-07-29T03:35:10.649Z,7.65
2022-07-29T03:37:55.345Z,8.13
2022-07-29T03:40:49.226Z,7.68
2022-07-29T03:43:38.722Z,7.47
2022-07-29T03:46:36.155Z,7.65
2022-07-29T03:49:23.561Z,7.60
2022-07-29T03:52:09.440Z,6.75
2022-07-29T03:54:54.581Z,7.72
2022-07-29T03:57:40.875Z,7.10
2022-07-29T04:00:27.359Z,7.57
2022-07-29T04:03:13.603Z,6.15
2022-07-29T04:06:07.055Z,6.78
2022-07-29T04:08:52.744Z,6.20
2022-07-29T04:12:01.820Z,6.40
2022-07-29T04:14:44.598Z,5.80
2022-07-29T04:17:29.646Z,6.20
2022-07-29T04:20:14.760Z,5.75
2022-07-29T04:22:59.870Z,6.00
2022-07-29T04:25:44.641Z,5.90
2022-07-29T04:28:29.492Z,5.60
2022-07-29T04:31:14.660Z,5.22
2022-07-29T04:33:59.570Z,5.70
2022-07-29T04:36:44.407Z,6.13
2022-07-29T04:39:30.459Z,6.10
2022-07-29T04:42:15.434Z,5.65
2022-07-29T04:45:02.853Z,5.90
2022-07-29T04:47:51.079Z,5.97
2022-07-29T04:50:39.213Z,5.30
2022-07-29T04:53:24.651Z,5.22
2022-07-29T04:56:09.767Z,5.22
2022-07-29T04:58:54.667Z,5.22
2022-07-29T05:01:39.730Z,4.93
2022-07-29T05:04:24.678Z,5.20
2022-07-29T05:07:09.529Z,4.82
2022-07-29T05:09:57.262Z,4.53
2022-07-29T05:12:42.658Z,5.18
2022-07-29T05:15:27.677Z,5.07
2022-07-29T05:18:12.843Z,5.20
2022-07-29T05:20:57.798Z,4.85
2022-07-29T05:23:42.665Z,4.40
2022-07-29T05:26:27.953Z,4.15
2022-07-29T05:29:43.055Z,4.45
2022-07-29T05:32:17.600Z,4.50
2022-07-29T05:35:03.111Z,4.10
2022-07-29T05:37:48.059Z,3.85
2022-07-29T05:40:33.261Z,4.00
2022-07-29T05:43:18.009Z,4.32
2022-07-29T05:46:03.272Z,3.90
2022-07-29T05:48:48.693Z,4.22
2022-07-29T05:51:34.349Z,4.10
2022-07-29T05:54:19.483Z,3.60
2022-07-29T05:57:04.620Z,3.97
2022-07-29T05:59:51.173Z,3.60
2022-07-29T06:02:36.553Z,3.42
2022-07-29T06:05:22.080Z,3.90
2022-07-29T06:08:07.556Z,3.78
2022-07-29T06:10:52.482Z,3.50
2022-07-29T06:13:37.476Z,3.35
2022-07-29T06:16:29.963Z,3.78
2022-07-29T06:19:15.405Z,3.60
2022-07-29T06:22:00.425Z,3.22
2022-07-29T06:24:45.426Z,3.30
2022-07-29T06:27:30.393Z,3.33
2022-07-29T06:30:15.232Z,3.05
2022-07-29T06:33:01.753Z,3.20
2022-07-29T06:35:55.158Z,3.17
2022-07-29T06:38:42.853Z,3.58
2022-07-29T06:41:31.020Z,3.30
2022-07-29T06:44:20.555Z,3.70
2022-07-29T06:47:05.614Z,3.42
2022-07-29T06:49:50.489Z,3.33
2022-07-29T06:52:35.374Z,8.02
2022-07-29T06:55:24.715Z,9.40
2022-07-29T06:58:11.285Z,9.32
2022-07-29T07:00:58.203Z,6.22
2022-07-29T07:03:42.918Z,4.80
2022-07-29T07:06:28.138Z,3.97
2022-07-29T07:09:12.771Z,4.22
2022-07-29T07:11:57.742Z,4.03
2022-07-29T07:14:42.881Z,4.63
2022-07-29T07:17:27.898Z,5.15
2022-07-29T07:20:13.264Z,4.90
2022-07-29T07:22:58.549Z,4.47
2022-07-29T07:25:44.007Z,4.07
2022-07-29T07:28:29.814Z,4.30
2022-07-29T07:31:14.698Z,3.97
2022-07-29T07:33:59.727Z,4.18
2022-07-29T07:36:44.866Z,4.30
2022-07-29T07:39:31.719Z,4.00
2022-07-29T07:42:16.763Z,3.50
2022-07-29T07:45:13.601Z,4.05
2022-07-29T07:48:00.841Z,4.50
2022-07-29T07:50:45.962Z,4.10
2022-07-29T07:53:31.109Z,4.38
2022-07-29T07:56:17.453Z,3.97
2022-07-29T07:59:02.428Z,3.80
2022-07-29T08:01:55.028Z,3.80
2022-07-29T08:04:41.390Z,4.30
2022-07-29T08:07:26.264Z,4.43
2022-07-29T08:10:11.170Z,4.05
2022-07-29T08:12:56.100Z,4.28
2022-07-29T08:15:43.186Z,3.70
2022-07-29T08:18:30.005Z,3.70
2022-07-29T08:21:16.049Z,3.33
2022-07-29T08:24:19.675Z,3.88
2022-07-29T08:27:09.810Z,3.50
2022-07-29T08:30:01.757Z,3.90
2022-07-29T08:32:54.167Z,3.33
2022-07-29T08:35:40.610Z,3.20
2022-07-29T08:38:26.616Z,3.30
2022-07-29T08:41:11.956Z,3.20
2022-07-29T08:43:57.085Z,2.83
2022-07-29T08:46:42.996Z,2.90
2022-07-29T08:49:27.930Z,3.17
2022-07-29T08:52:13.213Z,2.80
2022-07-29T08:54:58.053Z,2.95
2022-07-29T08:57:50.943Z,3.10
2022-07-29T09:00:43.492Z,2.90
2022-07-29T09:03:36.395Z,3.00
2022-07-29T09:06:22.693Z,2.72
2022-07-29T09:09:08.342Z,2.92
2022-07-29T09:11:53.945Z,2.80
2022-07-29T09:14:39.871Z,2.60
2022-07-29T09:17:46.837Z,2.70
2022-07-29T09:20:50.860Z,2.72
2022-07-29T09:23:36.250Z,2.67
2022-07-29T09:26:29.118Z,2.70
2022-07-29T09:29:16.988Z,3.10
2022-07-29T09:32:07.396Z,2.90
2022-07-29T09:35:22.341Z,3.20
2022-07-29T09:38:14.140Z,2.90
2022-07-29T09:41:05.818Z,3.03
2022-07-29T09:43:59.481Z,3.00
2022-07-29T09:47:08.874Z,2.70
2022-07-29T09:49:59.506Z,2.92
2022-07-29T09:52:49.666Z,2.67
2022-07-29T09:55:50.512Z,2.97
2022-07-29T09:58:36.561Z,2.60
2022-07-29T10:01:29.209Z,3.00
2022-07-29T10:04:14.684Z,2.83
2022-07-29T10:07:04.663Z,2.50
2022-07-29T10:09:57.532Z,2.53
2022-07-29T10:12:50.800Z,2.60
2022-07-29T10:15:39.536Z,2.50
2022-07-29T10:18:24.364Z,2.75
2022-07-29T10:21:10.503Z,2.85
2022-07-29T10:24:01.143Z,3.00
2022-07-29T10:26:48.491Z,2.65
2022-07-29T10:29:33.508Z,3.35
2022-07-29T10:32:28.926Z,3.15
2022-07-29T10:35:39.501Z,3.28
2022-07-29T10:38:35.234Z,3.20
2022-07-29T10:42:08.183Z,3.15
2022-07-29T10:44:55.065Z,3.30
2022-07-29T10:47:39.909Z,2.92
2022-07-29T10:50:26.667Z,3.40
2022-07-29T10:53:12.218Z,3.30
2022-07-29T10:55:59.863Z,3.13
2022-07-29T10:58:49.933Z,3.60
2022-07-29T11:01:39.384Z,3.70
2022-07-29T11:04:47.069Z,3.40
2022-07-29T11:07:45.862Z,3.75
2022-07-29T11:10:31.956Z,3.60
2022-07-29T11:13:50.874Z,3.13
2022-07-29T11:17:06.064Z,3.67
2022-07-29T11:19:52.428Z,3.00
2022-07-29T11:22:37.783Z,3.10
2022-07-29T11:25:42.431Z,3.20
2022-07-29T11:28:59.401Z,3.50
2022-07-29T11:31:48.811Z,3.20
2022-07-29T11:34:34.801Z,3.30
2022-07-29T11:37:28.384Z,3.92
2022-07-29T11:40:15.981Z,2.95
2022-07-29T11:43:03.122Z,2.97
2022-07-29T11:45:52.302Z,2.90
2022-07-29T11:48:42.035Z,2.85
2022-07-29T11:51:32.703Z,2.97
2022-07-29T11:54:27.519Z,2.88
2022-07-29T11:57:13.338Z,2.90
2022-07-29T12:00:09.501Z,2.80
2022-07-29T12:02:56.426Z,2.63
2022-07-29T12:05:48.279Z,2.72
2022-07-29T12:08:42.844Z,2.97
2022-07-29T12:11:27.948Z,3.00
2022-07-29T12:14:32.867Z,2.85
2022-07-29T12:17:33.548Z,2.88
2022-07-29T12:20:30.294Z,2.90
2022-07-29T12:23:16.797Z,2.83
2022-07-29T12:26:11.068Z,2.40
2022-07-29T12:29:11.240Z,2.40
2022-07-29T12:32:00.479Z,2.97
2022-07-29T12:34:46.057Z,3.08
2022-07-29T12:37:41.306Z,2.83
2022-07-29T12:40:27.800Z,3.10
2022-07-29T12:43:18.378Z,2.65
2022-07-29T12:46:15.035Z,3.10
2022-07-29T12:49:00.259Z,3.22
2022-07-29T12:51:45.380Z,3.45
2022-07-29T12:54:30.649Z,2.95
2022-07-29T12:57:20.017Z,3.60
2022-07-29T13:00:10.967Z,3.30
2022-07-29T13:02:58.115Z,3.38
2022-07-29T13:05:49.066Z,3.80
2022-07-29T13:08:34.723Z,3.80
2022-07-29T13:11:51.424Z,3.83
2022-07-29T13:14:46.247Z,4.00
2022-07-29T13:17:40.941Z,4.32
2022-07-29T13:20:32.226Z,4.05
2022-07-29T13:23:17.149Z,4.28
2022-07-29T13:26:09.840Z,4.60
2022-07-29T13:28:55.564Z,4.53
2022-07-29T13:31:40.343Z,4.40
2022-07-29T13:34:25.226Z,4.40
2022-07-29T13:37:10.598Z,4.55
2022-07-29T13:39:56.504Z,5.00
2022-07-29T13:42:41.847Z,4.68
2022-07-29T13:45:29.153Z,4.47
2022-07-29T13:48:14.200Z,4.80
2022-07-29T13:50:59.117Z,4.13
2022-07-29T13:53:44.120Z,4.20
2022-07-29T13:56:29.182Z,4.30
2022-07-29T13:59:14.363Z,5.45
2022-07-29T14:02:00.296Z,8.98
2022-07-29T14:04:45.880Z,8.82
2022-07-29T14:07:30.820Z,7.97
2022-07-29T14:10:19.961Z,7.00
2022-07-29T14:13:05.199Z,5.90
2022-07-29T14:15:50.337Z,4.88
2022-07-29T14:18:35.662Z,5.07
2022-07-29T14:21:20.635Z,5.53
2022-07-29T14:24:17.082Z,4.05
2022-07-29T14:27:03.747Z,4.25
2022-07-29T14:29:48.556Z,4.57
2022-07-29T14:32:33.406Z,4.03
2022-07-29T14:35:18.569Z,4.82
2022-07-29T14:38:03.541Z,4.40
2022-07-29T14:40:50.897Z,4.43
2022-07-29T14:43:36.254Z,4.80
2022-07-29T14:46:21.354Z,4.45
2022-07-29T14:49:06.610Z,4.40
2022-07-29T14:51:54.432Z,4.50
2022-07-29T14:54:39.311Z,3.90
2022-07-29T14:57:24.844Z,4.22
2022-07-29T15:00:11.584Z,4.25
2022-07-29T15:03:03.766Z,4.40
2022-07-29T15:05:49.162Z,4.50
2022-07-29T15:08:34.122Z,4.85
2022-07-29T15:11:19.318Z,4.60
2022-07-29T15:14:03.863Z,4.35
2022-07-29T15:16:48.883Z,4.22
2022-07-29T15:19:33.923Z,4.75
2022-07-29T15:22:18.999Z,4.40
2022-07-29T15:25:05.101Z,4.28
2022-07-29T15:27:52.346Z,4.43
2022-07-29T15:30:41.225Z,4.40
2022-07-29T15:33:26.785Z,4.40
2022-07-29T15:36:25.408Z,4.68
2022-07-29T15:39:18.386Z,4.55
2022-07-29T15:42:03.566Z,4.18
2022-07-29T15:44:48.750Z,4.70
2022-07-29T15:47:36.020Z,4.70
2022-07-29T15:50:21.520Z,4.57
2022-07-29T15:53:06.440Z,4.72
2022-07-29T15:55:51.976Z,4.70
2022-07-29T15:58:36.752Z,4.53
2022-07-29T16:01:21.922Z,4.95
2022-07-29T16:04:06.874Z,4.70
2022-07-29T16:06:52.310Z,5.18
2022-07-29T16:09:37.547Z,5.15
2022-07-29T16:12:22.274Z,4.97
2022-07-29T16:15:10.266Z,5.20
2022-07-29T16:17:55.505Z,5.35
2022-07-29T16:20:41.415Z,4.70
2022-07-29T16:23:27.158Z,5.13
2022-07-29T16:26:12.092Z,4.70
2022-07-29T16:28:57.344Z,4.30
2022-07-29T16:31:42.047Z,4.30
2022-07-29T16:34:27.074Z,4.63
2022-07-29T16:37:12.097Z,4.60
2022-07-29T16:39:57.476Z,4.68
2022-07-29T16:42:47.180Z,4.13
2022-07-29T16:45:45.770Z,4.70
2022-07-29T16:48:31.365Z,4.00
2022-07-29T16:51:16.545Z,4.68
2022-07-29T16:54:01.476Z,4.30
2022-07-29T16:56:46.579Z,4.32
2022-07-29T16:59:31.971Z,4.40
2022-07-29T17:02:17.728Z,4.75
2022-07-29T17:05:03.058Z,4.82
2022-07-29T17:07:48.053Z,4.32
2022-07-29T17:10:32.915Z,4.80
2022-07-29T17:13:17.796Z,4.72
2022-07-29T17:16:03.159Z,4.88
2022-07-29T17:18:48.223Z,4.90
2022-07-29T17:21:33.251Z,4.50
2022-07-29T17:24:18.367Z,5.45
2022-07-29T17:27:04.049Z,5.15
2022-07-29T17:29:48.747Z,5.07
2022-07-29T17:32:37.937Z,5.53
2022-07-29T17:35:41.087Z,5.22
2022-07-29T17:38:26.048Z,5.30
2022-07-29T17:41:11.150Z,5.85
2022-07-29T17:43:56.922Z,5.32
2022-07-29T17:46:42.085Z,5.47
2022-07-29T17:49:27.612Z,5.40
2022-07-29T17:52:12.879Z,5.93
2022-07-29T17:54:57.882Z,5.05
2022-07-29T17:57:42.877Z,5.57
2022-07-29T18:00:27.741Z,5.72
2022-07-29T18:03:12.818Z,5.68
2022-07-29T18:05:58.112Z,5.47
2022-07-29T18:08:46.988Z,5.95
2022-07-29T18:11:32.169Z,6.43
2022-07-29T18:14:17.158Z,6.43
2022-07-29T18:17:02.177Z,6.32
2022-07-29T18:19:48.220Z,6.13
2022-07-29T18:22:33.938Z,6.47
2022-07-29T18:25:18.990Z,5.97
2022-07-29T18:28:04.687Z,6.20
2022-07-29T18:30:50.730Z,6.43
2022-07-29T18:33:40.119Z,6.25
2022-07-29T18:36:25.206Z,6.40
2022-07-29T18:39:10.036Z,6.43
2022-07-29T18:42:14.917Z,6.38
2022-07-29T18:44:59.450Z,6.75
2022-07-29T18:47:44.971Z,6.57
2022-07-29T18:50:32.151Z,6.43
2022-07-29T18:53:16.901Z,6.80
2022-07-29T18:56:02.863Z,7.18
2022-07-29T18:58:47.744Z,6.50
2022-07-29T19:01:32.939Z,6.00
2022-07-29T19:04:18.797Z,6.97
2022-07-29T19:07:03.820Z,6.63
2022-07-29T19:09:49.542Z,6.65
2022-07-29T19:12:34.643Z,6.35
2022-07-29T19:15:20.131Z,6.32
2022-07-29T19:18:05.347Z,5.78
2022-07-29T19:20:50.667Z,5.63
2022-07-29T19:24:05.913Z,5.95
2022-07-29T19:26:46.080Z,5.57
2022-07-29T19:29:32.130Z,6.30
2022-07-29T19:32:25.345Z,5.70
2022-07-29T19:35:30.617Z,6.35
2022-07-29T19:38:15.531Z,6.32
2022-07-29T19:41:00.484Z,6.07
2022-07-29T19:43:51.959Z,6.20
2022-07-29T19:46:38.206Z,5.93
2022-07-29T19:49:23.008Z,5.70
2022-07-29T19:52:07.770Z,5.88
2022-07-29T19:54:53.081Z,5.97
2022-07-29T19:57:40.984Z,5.72
2022-07-29T20:00:26.283Z,5.78
2022-07-29T20:03:12.267Z,5.90
2022-07-29T20:05:57.690Z,5.53
2022-07-29T20:08:42.724Z,5.88
2022-07-29T20:11:29.128Z,5.63
2022-07-29T20:14:14.361Z,5.85
2022-07-29T20:16:59.469Z,5.80
2022-07-29T20:19:49.131Z,5.70
2022-07-29T20:22:35.484Z,5.45
2022-07-29T20:25:20.839Z,5.80
2022-07-29T20:28:06.441Z,4.82
2022-07-29T20:30:51.909Z,5.18
2022-07-29T20:33:36.653Z,6.07
2022-07-29T20:36:21.565Z,5.80
2022-07-29T20:39:06.731Z,6.10
2022-07-29T20:41:51.533Z,6.22
2022-07-29T20:44:36.529Z,6.55
2022-07-29T20:47:21.884Z,5.70
2022-07-29T20:50:09.310Z,6.20
2022-07-29T20:52:54.272Z,5.70
2022-07-29T20:55:39.087Z,5.40
2022-07-29T20:58:24.111Z,6.07
2022-07-29T21:01:09.311Z,5.60
2022-07-29T21:03:54.473Z,5.57
2022-07-29T21:06:39.748Z,5.38
2022-07-29T21:09:24.554Z,5.63
2022-07-29T21:12:10.636Z,5.40
2022-07-29T21:14:56.899Z,6.05
2022-07-29T21:17:48.144Z,6.28
2022-07-29T21:20:33.020Z,5.25
2022-07-29T21:23:17.891Z,6.15
2022-07-29T21:26:03.610Z,6.40
2022-07-29T21:28:50.166Z,6.88
2022-07-29T21:31:35.703Z,7.00
2022-07-29T21:34:20.858Z,6.93
2022-07-29T21:37:05.791Z,7.38
2022-07-29T21:39:52.139Z,7.25
2022-07-29T21:42:37.472Z,6.93
2022-07-29T21:45:22.613Z,6.80
2022-07-29T21:48:08.097Z,7.05
2022-07-29T21:50:53.390Z,6.53
2022-07-29T21:53:38.389Z,6.40
2022-07-29T21:56:27.502Z,6.50
2022-07-29T21:59:12.989Z,6.03
2022-07-29T22:02:00.681Z,5.63
2022-07-29T22:04:45.434Z,6.22
2022-07-29T22:07:54.462Z,5.78
2022-07-29T22:10:35.320Z,5.63
2022-07-29T22:13:20.478Z,5.20
2022-07-29T22:16:05.873Z,5.82
2022-07-29T22:18:50.829Z,5.63
2022-07-29T22:21:35.757Z,5.53
2022-07-29T22:24:20.844Z,6.00
2022-07-29T22:27:05.603Z,5.50
2022-07-29T22:29:50.850Z,5.53
2022-07-29T22:32:35.960Z,5.22
2022-07-29T22:35:21.185Z,5.32
2022-07-29T22:38:06.096Z,4.82
2022-07-29T22:40:51.811Z,5.70
2022-07-29T22:43:38.979Z,5.07
2022-07-29T22:46:23.815Z,5.57
2022-07-29T22:49:08.935Z,4.75
2022-07-29T22:51:53.743Z,5.28
2022-07-29T22:54:39.042Z,5.10
2022-07-29T22:57:23.913Z,4.90
2022-07-29T23:00:09.574Z,5.38
2022-07-29T23:02:54.837Z,5.40
2022-07-29T23:05:39.895Z,5.45
2022-07-29T23:08:24.928Z,5.05
2022-07-29T23:11:10.209Z,5.00
2022-07-29T23:13:54.964Z,5.53
2022-07-29T23:16:39.872Z,5.70
2022-07-29T23:19:24.774Z,5.60
2022-07-29T23:22:10.287Z,5.55
2022-07-29T23:24:55.509Z,5.78
2022-07-29T23:27:40.800Z,5.68
2022-07-29T23:30:25.620Z,5.45
2022-07-29T23:33:10.410Z,5.75
2022-07-29T23:35:55.486Z,6.20
2022-07-29T23:38:40.518Z,5.50
2022-07-29T23:41:30.055Z,6.15
2022-07-29T23:44:15.127Z,6.10
2022-07-29T23:47:01.684Z,5.93
2022-07-29T23:49:49.273Z,5.82
2022-07-29T23:52:35.549Z,6.15
2022-07-29T23:55:38.293Z,6.50
2022-07-29T23:58:24.546Z,6.10
